Flight Track Log - Related Links

Times and Time Zones

All times are in EDT time to prevent confusion due to time zone crossing. See the SWA2279 flight status page for this flight to view local times or setup timezone preferences in your user account.

Time Position Orientation Groundspeed Altitude Reporting Facility
EDT Latitude Longitude Course Direction KTS MPH feet Rate Location/Type
Sat 11:35:57 AM 36.0772 -115.2636 271° West 233 268 5,200  Level Los Center
Sat 11:36:13 AM 36.0850 -115.2742 312° West 218 251 5,600 2,656 Climbing Los Center
Sat 11:36:58 AM 36.1406 -115.2961 342° North 246 283 7,900 2,459 Climbing Los Center
Sat 11:37:14 AM 36.1472 -115.2908 33° Northeast 249 287 8,100 2,066 Climbing Los Center
Sat 11:37:59 AM 36.1822 -115.2292 55° Northeast 251 289 10,000 2,129 Climbing Los Center
Sat 11:38:16 AM 36.1914 -115.2042 66° East 255 293 10,300 984 Climbing Los Center
Sat 11:39:00 AM 36.1964 -115.1258 85° East 322 371 11,000 1,161 Climbing Los Center
Sat 11:39:18 AM 36.1975 -115.0914 88° East 319 367 11,500 2,111 Climbing Los Center
Sat 11:39:54 AM 36.1975 -115.0108 90° East 359 413 12,900 2,226 Climbing Los Center
Sat 11:40:20 AM 36.1983 -114.9669 89° East 355 409 13,800 2,690 Climbing Los Center
Sat 11:41:21 AM 36.2003 -114.8367 89° East 373 429 16,800 2,732 Climbing Los Center
Sat 11:42:23 AM 36.2567 -114.7292 57° Northeast 396 456 19,400 2,613 Climbing Los Center
Sat 11:43:25 AM 36.3425 -114.6467 38° Northeast 395 455 22,200 2,371 Climbing Los Center
Sat 11:44:27 AM 36.4311 -114.5611 38° Northeast 400 460 24,300 2,146 Climbing Los Center
Sat 11:45:28 AM 36.5431 -114.4556 37° Northeast 415 478 26,600 2,049 Climbing Los Center
Sat 11:46:30 AM 36.6444 -114.3753 32° Northeast 426 490 28,500 2,129 Climbing Los Center
Sat 11:47:32 AM 36.7461 -114.2981 31° Northeast 429 494 31,000 2,177 Climbing Los Center
Sat 11:48:34 AM 36.8450 -114.2214 32° Northeast 423 487 33,000 976 Climbing Los Center
Sat 11:49:35 AM 36.9414 -114.1450 32° Northeast 416 479 33,000  Level Los Center
Sat 11:50:37 AM 37.0383 -114.0683 32° Northeast 413 475 33,000  Level Los Center
Sat 11:51:51 AM 37.1361 -113.9928 32° Northeast 414 476 33,000  Level Los Center
Sat 11:52:53 AM 37.2733 -113.8856 32° Northeast 414 476 33,000  Level Los Center
Sat 11:53:54 AM 37.3578 -113.8203 32° Northeast 414 476 33,000  Level Los Center
Sat 11:54:43 AM 37.4544 -113.7431 32° Northeast 413 475 33,000  Level Salt Center
Sat 11:55:45 AM 37.5517 -113.6667 32° Northeast 411 473 33,000  Level Salt Center
Sat 11:56:47 AM 37.6486 -113.5889 32° Northeast 411 473 33,000  Level Salt Center
Sat 11:57:48 AM 37.7464 -113.5108 32° Northeast 412 474 33,000  Level Salt Center
Sat 11:58:50 AM 37.8447 -113.4319 32° Northeast 415 478 33,000  Level Salt Center
Sat 11:59:52 AM 37.9431 -113.3539 32° Northeast 415 478 33,000  Level Salt Center
Sat 12:00:54 PM 38.0411 -113.2733 33° Northeast 417 480 33,000  Level Salt Center
Sat 12:01:55 PM 38.1392 -113.1956 32° Northeast 415 478 33,000  Level Salt Center
Sat 12:02:57 PM 38.2378 -113.1158 32° Northeast 416 479 33,000  Level Salt Center
Sat 12:03:59 PM 38.3542 -113.0200 33° Northeast 415 478 33,000 -293 Level Salt Center
Sat 12:05:00 PM 38.4600 -112.9611 24° Northeast 414 476 32,400 -488 Descending Salt Center
Sat 12:06:02 PM 38.5681 -112.9050 22° Northeast 418 481 32,000 -194 Descending Salt Center
Sat 12:07:04 PM 38.6739 -112.8472 23° Northeast 415 478 32,000  Level Salt Center
Sat 12:08:06 PM 38.7800 -112.7894 23° Northeast 412 474 32,000  Level Salt Center
Sat 12:09:07 PM 38.8844 -112.7333 23° Northeast 408 470 32,000  Level Salt Center
Sat 12:10:09 PM 38.9906 -112.6764 23° Northeast 412 474 32,000 -242 Level Salt Center
Sat 12:11:11 PM 39.1150 -112.6086 23° Northeast 406 467 31,500 -871 Descending Salt Center
Sat 12:12:13 PM 39.2156 -112.5533 23° Northeast 395 455 30,200 -1,122 Descending Salt Center
Sat 12:13:14 PM 39.3106 -112.5039 22° Northeast 409 471 29,200 -1,756 Descending Salt Center
Sat 12:14:16 PM 39.4361 -112.4314 24° Northeast 411 473 26,600 -2,274 Descending Salt Center
Sat 12:15:18 PM 39.5356 -112.3722 25° Northeast 394 453 24,500 -2,032 Descending Salt Center
Sat 12:16:20 PM 39.6331 -112.3172 23° Northeast 382 440 22,400 -2,000 Descending Salt Center
Sat 12:17:21 PM 39.7281 -112.2617 24° Northeast 374 430 20,400 -1,951 Descending Salt Center
Sat 12:18:23 PM 39.8186 -112.2092 24° Northeast 360 414 18,400 -2,067 Descending Salt Center
Sat 12:18:51 PM 39.8681 -112.1878 18° North 357 411 17,300 -1,839 Descending Salt Center
Sat 12:19:25 PM 39.9069 -112.1578 31° Northeast 347 399 16,500 -1,890 Descending Salt Center
Sat 12:20:04 PM 39.9742 -112.1247 21° North 345 397 15,000 -1,452 Descending Salt Center
Sat 12:20:27 PM 39.9936 -112.1064 36° Northeast 341 392 15,000  Level Salt Center
Sat 12:21:05 PM 40.0589 -112.0739 21° North 331 381 15,000 -98 Level Salt Center
Sat 12:21:28 PM 40.0931 -112.0464 32° Northeast 329 379 14,900 -1,309 Descending Salt Center
Sat 12:22:00 PM 40.1333 -112.0264 21° North 329 379 13,800 -1,935 Descending Salt Center
Sat 12:22:30 PM 40.1733 -111.9975 29° Northeast 321 369 12,900 -1,869 Descending Salt Center
Sat 12:23:01 PM 40.2144 -111.9794 19° North 317 365 11,900 -1,742 Descending Salt Center
Sat 12:23:32 PM 40.2525 -111.9506 30° Northeast 313 360 11,100 -750 Descending Salt Center
Sat 12:24:13 PM 40.3150 -111.9428 North 311 358 11,000 -97 Descending Salt Center
Sat 12:24:34 PM 40.3369 -111.9339 17° North 307 353 11,000  Level Salt Center
Sat 12:25:08 PM 40.3942 -111.9414 354° North 311 358 11,000  Level Salt Center
Sat 12:25:36 PM 40.4219 -111.9375 North 304 350 11,000 -537 Level Salt Center
Sat 12:26:15 PM 40.4747 -111.9450 354° North 252 290 10,400 -787 Descending Salt Center
Sat 12:26:37 PM 40.4919 -111.9417 North 254 292 10,200 -1,082 Descending Salt Center
Sat 12:27:16 PM 40.5444 -111.9497 353° North 245 282 9,300 -1,065 Descending Salt Center
Sat 12:27:39 PM 40.5583 -111.9472 North 237 273 9,100 -873 Descending Salt Center
Sat 12:28:11 PM 40.5972 -111.9544 352° North 216 249 8,500 -1,355 Descending Salt Center
Sat 12:28:41 PM 40.6250 -111.9553 359° North 193 222 7,700 -1,701 Descending Salt Center
Sat 12:29:18 PM 40.6542 -111.9603 353° North 183 211 6,600 -1,548 Descending Salt Center
Sat 12:29:43 PM 40.6739 -111.9608 359° North 179 206 6,100 -1,000 Descending Salt Center
Sat 12:30:12 PM 40.6942 -111.9667 348° North 173 199 5,700 -689 Descending Salt Center
Sat 12:30:44 PM 40.7181 -111.9661 North 162 186 5,400 -590 Descending Salt Center
Sat 12:31:13 PM 40.7358 -111.9694 352° North 151 174 5,100 -774 Descending Salt Center
Sat 12:31:46 PM 40.7578 -111.9708 357° North 147 169 4,600 -568 Descending Salt Center
Sat 12:32:48 PM 40.7942 -111.9747 355° North 131 151 4,200 -387 Descending Salt Center
Sat 12:34:00 PM 40.7833 -111.9667 North  Level FlightAware

Login

Don't have an account? Register now (free) for customized features, flight alerts, and more!